createdAt,value
2018-05-07T00:00:10.830Z,18.53
2018-05-07T00:02:38.374Z,18.20
2018-05-07T00:05:05.905Z,16.50
2018-05-07T00:07:33.494Z,17.60
2018-05-07T00:10:15.306Z,20.03
2018-05-07T00:12:42.879Z,17.40
2018-05-07T00:15:10.404Z,17.47
2018-05-07T00:17:38.712Z,18.10
2018-05-07T00:20:06.290Z,20.53
2018-05-07T00:22:33.807Z,16.87
2018-05-07T00:25:01.354Z,16.13
2018-05-07T00:27:29.686Z,17.10
2018-05-07T00:29:57.223Z,24.00
2018-05-07T00:32:24.742Z,18.20
2018-05-07T00:34:53.111Z,15.97
2018-05-07T00:37:20.611Z,14.53
2018-05-07T00:39:48.240Z,15.47
2018-05-07T00:42:15.790Z,15.07
2018-05-07T00:44:44.090Z,15.87
2018-05-07T00:47:11.667Z,14.47
2018-05-07T00:49:39.301Z,15.00
2018-05-07T00:52:07.617Z,17.87
2018-05-07T00:54:46.870Z,18.33
2018-05-07T00:57:14.434Z,18.83
2018-05-07T00:59:41.962Z,22.43
2018-05-07T01:02:09.504Z,18.83
2018-05-07T01:04:37.072Z,16.37
2018-05-07T01:07:04.586Z,17.67
2018-05-07T01:09:32.151Z,21.33
2018-05-07T01:12:00.471Z,21.87
2018-05-07T01:14:27.994Z,17.27
2018-05-07T01:16:56.282Z,17.20
2018-05-07T01:19:23.843Z,17.67
2018-05-07T01:21:51.366Z,18.77
2018-05-07T01:24:18.890Z,20.17
2018-05-07T01:26:46.435Z,18.23
2018-05-07T01:29:13.967Z,17.13
2018-05-07T01:31:42.634Z,18.57
2018-05-07T01:34:10.237Z,21.90
2018-05-07T01:36:37.766Z,24.03
2018-05-07T01:39:05.405Z,22.63
2018-05-07T01:41:32.945Z,17.97
2018-05-07T01:44:00.474Z,17.37
2018-05-07T01:46:27.998Z,22.80
2018-05-07T01:48:56.286Z,18.93
2018-05-07T01:51:24.603Z,16.93
2018-05-07T01:53:52.143Z,19.07
2018-05-07T01:59:16.041Z,17.00
2018-05-07T02:01:43.580Z,21.50
2018-05-07T02:04:11.114Z,20.77
2018-05-07T02:06:39.434Z,17.27
2018-05-07T02:09:07.800Z,17.67
2018-05-07T02:11:35.434Z,17.27
2018-05-07T02:14:03.735Z,18.53
2018-05-07T02:16:31.257Z,20.57
2018-05-07T02:18:58.810Z,19.20
2018-05-07T02:21:26.494Z,19.20
2018-05-07T02:23:54.051Z,21.03
2018-05-07T02:26:21.645Z,20.47
2018-05-07T02:28:49.171Z,17.53
2018-05-07T02:31:31.023Z,20.13
2018-05-07T02:33:58.571Z,15.70
2018-05-07T02:36:26.148Z,19.93
2018-05-07T02:38:53.752Z,16.07
2018-05-07T02:41:21.252Z,17.97
2018-05-07T02:43:48.793Z,17.00
2018-05-07T02:46:16.319Z,17.70
2018-05-07T02:48:43.912Z,18.67
2018-05-07T02:51:11.442Z,20.47
2018-05-07T02:53:38.988Z,15.60
2018-05-07T02:56:07.333Z,18.47
2018-05-07T02:58:34.886Z,17.03
2018-05-07T03:01:02.422Z,22.70
2018-05-07T03:03:29.988Z,16.53
2018-05-07T03:05:57.555Z,19.33
2018-05-07T03:08:25.082Z,21.83
2018-05-07T03:10:52.643Z,17.70
2018-05-07T03:13:20.239Z,18.07
2018-05-07T03:15:47.746Z,15.83
2018-05-07T03:18:16.048Z,13.13
2018-05-07T03:20:43.637Z,14.87
2018-05-07T03:23:11.211Z,15.13
2018-05-07T03:25:38.754Z,15.33
2018-05-07T03:28:06.299Z,17.27
2018-05-07T03:30:33.896Z,14.27
2018-05-07T03:33:01.430Z,15.03
2018-05-07T03:35:28.941Z,15.50
2018-05-07T03:37:56.524Z,15.60
2018-05-07T03:40:24.137Z,15.33
2018-05-07T03:42:51.617Z,16.43
2018-05-07T03:45:19.158Z,16.93
2018-05-07T03:47:46.722Z,19.10
2018-05-07T03:50:15.212Z,14.90
2018-05-07T03:52:42.787Z,19.37
2018-05-07T03:55:10.348Z,17.07
2018-05-07T03:57:37.958Z,18.33
2018-05-07T04:00:10.570Z,22.20
2018-05-07T04:02:38.114Z,15.87
2018-05-07T04:05:06.406Z,18.10
2018-05-07T04:07:33.960Z,20.13
2018-05-07T04:10:01.650Z,20.93
2018-05-07T04:12:29.191Z,19.40
2018-05-07T04:14:56.726Z,22.03
2018-05-07T04:17:36.169Z,19.87
2018-05-07T04:20:15.411Z,18.10
2018-05-07T04:22:54.826Z,20.63
2018-05-07T04:25:22.346Z,18.23
2018-05-07T04:27:49.878Z,22.63
2018-05-07T04:30:17.538Z,20.43
2018-05-07T04:32:45.079Z,21.90
2018-05-07T04:35:13.375Z,19.60
2018-05-07T04:37:40.949Z,16.80
2018-05-07T04:40:08.494Z,19.63
2018-05-07T04:42:36.039Z,22.13
2018-05-07T04:45:03.599Z,24.47
2018-05-07T04:47:31.139Z,22.47
2018-05-07T04:49:58.683Z,17.00
2018-05-07T04:52:26.266Z,20.93
2018-05-07T04:54:53.838Z,20.00
2018-05-07T04:57:21.358Z,21.63
2018-05-07T04:59:48.963Z,20.97
2018-05-07T05:02:16.514Z,20.00
2018-05-07T05:04:44.059Z,18.97
2018-05-07T05:07:11.647Z,21.73
2018-05-07T05:09:39.936Z,18.60
2018-05-07T05:12:07.488Z,19.97
2018-05-07T05:14:35.015Z,18.90
2018-05-07T05:17:03.323Z,19.60
2018-05-07T05:19:30.858Z,19.80
2018-05-07T05:21:58.407Z,21.37
2018-05-07T05:24:25.970Z,21.77
2018-05-07T05:26:53.532Z,19.53
2018-05-07T05:29:21.837Z,20.90
2018-05-07T05:31:49.407Z,20.77
2018-05-07T05:34:16.938Z,15.67
2018-05-07T05:36:44.463Z,19.23
2018-05-07T05:39:12.017Z,16.73
2018-05-07T05:41:39.592Z,16.13
2018-05-07T05:44:07.131Z,15.97
2018-05-07T05:46:34.681Z,18.50
2018-05-07T05:49:02.250Z,18.30
2018-05-07T05:51:29.798Z,20.03
2018-05-07T05:53:57.307Z,17.20
2018-05-07T05:56:24.994Z,20.13
2018-05-07T05:58:52.408Z,19.33
2018-05-07T06:01:19.962Z,14.63
2018-05-07T06:03:47.600Z,15.90
2018-05-07T06:06:15.084Z,19.43
2018-05-07T06:08:42.614Z,19.13
2018-05-07T06:11:24.695Z,14.87
2018-05-07T06:13:52.218Z,18.67
2018-05-07T06:16:19.762Z,17.93
2018-05-07T06:18:48.079Z,15.63
2018-05-07T06:21:15.717Z,16.07
2018-05-07T06:23:43.185Z,19.13
2018-05-07T06:26:10.698Z,21.47
2018-05-07T06:28:38.226Z,20.00
2018-05-07T06:31:05.785Z,17.63
2018-05-07T06:33:33.319Z,22.00
2018-05-07T06:36:00.863Z,20.70
2018-05-07T06:38:29.835Z,15.17
2018-05-07T06:40:57.375Z,22.03
2018-05-07T06:43:24.907Z,19.23
2018-05-07T06:45:52.595Z,18.43
2018-05-07T06:48:20.056Z,17.23
2018-05-07T06:50:48.589Z,19.43
2018-05-07T06:53:16.130Z,18.20
2018-05-07T06:55:43.663Z,15.77
2018-05-07T06:58:11.972Z,19.57
2018-05-07T07:00:39.535Z,19.93
2018-05-07T07:03:07.149Z,17.13
2018-05-07T07:05:34.682Z,24.27
2018-05-07T07:08:02.303Z,18.00
2018-05-07T07:10:29.797Z,17.80
2018-05-07T07:12:57.332Z,18.60
2018-05-07T07:15:24.880Z,21.17
2018-05-07T07:17:52.439Z,17.43
2018-05-07T07:20:19.967Z,16.13
2018-05-07T07:22:47.533Z,15.23
2018-05-07T07:25:15.826Z,18.33
2018-05-07T07:27:43.362Z,21.77
2018-05-07T07:30:11.683Z,21.57
2018-05-07T07:32:39.986Z,17.57
2018-05-07T07:35:07.540Z,20.33
2018-05-07T07:37:35.088Z,21.20
2018-05-07T07:40:02.699Z,20.07
2018-05-07T07:42:30.250Z,19.97
2018-05-07T07:44:57.798Z,19.37
2018-05-07T07:47:25.355Z,20.40
2018-05-07T07:49:52.899Z,23.83
2018-05-07T07:52:20.431Z,22.00
2018-05-07T07:54:48.004Z,20.33
2018-05-07T07:57:15.544Z,22.03
2018-05-07T07:59:52.781Z,19.43
2018-05-07T08:02:20.333Z,19.27
2018-05-07T08:04:47.871Z,23.50
2018-05-07T08:07:15.426Z,21.10
2018-05-07T08:09:42.944Z,20.60
2018-05-07T08:12:10.539Z,19.17
2018-05-07T08:14:38.053Z,22.67
2018-05-07T08:17:05.584Z,23.13
2018-05-07T08:19:33.149Z,19.87
2018-05-07T08:22:01.516Z,20.57
2018-05-07T08:24:29.058Z,21.47
2018-05-07T08:26:56.617Z,19.83
2018-05-07T08:29:24.156Z,18.70
2018-05-07T08:31:51.773Z,16.17
2018-05-07T08:34:20.090Z,17.57
2018-05-07T08:36:47.707Z,19.50
2018-05-07T08:39:15.235Z,24.10
2018-05-07T08:41:42.783Z,19.93
2018-05-07T08:44:10.308Z,25.03
2018-05-07T08:46:37.843Z,18.37
2018-05-07T08:49:05.415Z,20.83
2018-05-07T08:51:32.941Z,18.17
2018-05-07T08:54:00.480Z,17.07
2018-05-07T08:56:28.022Z,19.00
2018-05-07T08:58:55.559Z,16.13
2018-05-07T09:01:23.114Z,21.40
2018-05-07T09:03:50.666Z,21.67
2018-05-07T09:06:18.209Z,16.80
2018-05-07T09:08:46.504Z,17.57
2018-05-07T09:11:14.060Z,16.20
2018-05-07T09:13:41.619Z,21.40
2018-05-07T09:16:09.170Z,18.27
2018-05-07T09:18:36.743Z,17.17
2018-05-07T09:21:04.301Z,19.60
2018-05-07T09:23:31.859Z,16.13
2018-05-07T09:25:59.419Z,17.37
2018-05-07T09:28:26.961Z,16.97
2018-05-07T09:30:55.266Z,20.83
2018-05-07T09:33:22.852Z,20.63
2018-05-07T09:35:50.374Z,17.47
2018-05-07T09:38:17.905Z,14.97
2018-05-07T09:41:04.954Z,18.60
2018-05-07T09:43:32.474Z,18.93
2018-05-07T09:46:00.027Z,15.87
2018-05-07T09:48:27.627Z,18.07
2018-05-07T09:50:55.174Z,16.00
2018-05-07T09:53:22.723Z,14.53
2018-05-07T09:55:50.315Z,15.77
2018-05-07T09:58:17.862Z,15.57
2018-05-07T10:00:45.525Z,12.40
2018-05-07T10:03:13.092Z,15.77
2018-05-07T10:05:40.617Z,14.73
2018-05-07T10:08:08.148Z,14.73
2018-05-07T10:10:35.696Z,16.60
2018-05-07T10:13:03.215Z,13.90
2018-05-07T10:15:30.786Z,17.67
2018-05-07T10:17:58.355Z,14.93
2018-05-07T10:20:25.885Z,15.53
2018-05-07T10:22:53.445Z,12.43
2018-05-07T10:25:20.997Z,15.53
2018-05-07T10:27:49.294Z,15.87
2018-05-07T10:30:16.856Z,18.10
2018-05-07T10:32:44.462Z,15.00
2018-05-07T10:35:11.992Z,13.33
2018-05-07T10:37:39.524Z,17.23
2018-05-07T10:40:07.066Z,16.13
2018-05-07T10:42:35.395Z,16.33
2018-05-07T10:45:02.933Z,16.17
2018-05-07T10:47:30.494Z,19.60
2018-05-07T10:49:58.051Z,14.97
2018-05-07T10:52:26.410Z,18.67
2018-05-07T10:54:53.964Z,12.70
2018-05-07T10:57:22.277Z,12.73
2018-05-07T10:59:54.924Z,16.43
2018-05-07T11:02:22.455Z,13.30
2018-05-07T11:04:50.006Z,14.27
2018-05-07T11:07:17.565Z,12.10
2018-05-07T11:09:54.693Z,14.03
2018-05-07T11:12:22.237Z,17.50
2018-05-07T11:14:49.787Z,15.37
2018-05-07T11:17:17.372Z,14.23
2018-05-07T11:19:44.985Z,13.03
2018-05-07T11:22:12.450Z,17.53
2018-05-07T11:24:39.975Z,18.60
2018-05-07T11:27:07.518Z,15.57
2018-05-07T11:29:35.048Z,10.47
2018-05-07T11:32:03.344Z,14.37
2018-05-07T11:34:30.910Z,13.53
2018-05-07T11:36:58.441Z,15.80
2018-05-07T11:39:25.995Z,11.73
2018-05-07T11:41:54.364Z,15.67
2018-05-07T11:44:22.719Z,14.00
2018-05-07T11:46:50.266Z,12.93
2018-05-07T11:49:17.819Z,11.10
2018-05-07T11:51:45.358Z,13.03
2018-05-07T11:54:12.884Z,14.67
2018-05-07T11:56:41.220Z,13.33
2018-05-07T11:59:08.755Z,11.67
2018-05-07T12:01:36.291Z,14.43
2018-05-07T12:04:03.852Z,13.63
2018-05-07T12:06:32.292Z,12.47
2018-05-07T12:08:59.840Z,14.83
2018-05-07T12:11:27.387Z,12.60
2018-05-07T12:13:54.911Z,19.00
2018-05-07T12:16:22.503Z,12.90
2018-05-07T12:18:50.060Z,12.13
2018-05-07T12:21:22.782Z,13.87
2018-05-07T12:23:51.119Z,14.70
2018-05-07T12:26:18.634Z,11.03
2018-05-07T12:28:46.162Z,12.83
2018-05-07T12:31:13.953Z,10.57
2018-05-07T12:33:41.407Z,10.87
2018-05-07T12:36:08.948Z,10.83
2018-05-07T12:38:36.515Z,10.50
2018-05-07T12:41:04.903Z,15.77
2018-05-07T12:43:32.422Z,12.73
2018-05-07T12:46:00.055Z,16.47
2018-05-07T12:48:27.588Z,14.07
2018-05-07T12:50:55.335Z,10.63
2018-05-07T12:53:22.895Z,14.70
2018-05-07T12:55:51.187Z,12.17
2018-05-07T12:58:18.716Z,15.97
2018-05-07T13:00:46.432Z,15.43
2018-05-07T13:03:13.950Z,10.73
2018-05-07T13:05:42.267Z,12.57
2018-05-07T13:08:09.822Z,19.57
2018-05-07T13:10:37.435Z,19.23
2018-05-07T13:13:05.003Z,11.03
2018-05-07T13:15:32.571Z,17.53
2018-05-07T13:18:00.292Z,14.83
2018-05-07T13:20:27.907Z,13.20
2018-05-07T13:22:55.464Z,14.87
2018-05-07T13:25:23.011Z,10.70
2018-05-07T13:27:50.589Z,15.40
2018-05-07T13:30:18.344Z,13.00
2018-05-07T13:32:45.915Z,16.43
2018-05-07T13:35:13.447Z,15.70
2018-05-07T13:37:41.012Z,15.20
2018-05-07T13:40:08.568Z,15.77
2018-05-07T13:42:36.891Z,16.93
2018-05-07T13:45:04.414Z,15.27
2018-05-07T13:47:31.956Z,13.40
2018-05-07T13:49:59.507Z,16.93
2018-05-07T13:52:27.050Z,13.00
2018-05-07T13:54:54.574Z,10.90
2018-05-07T13:57:22.111Z,8.87
2018-05-07T13:59:49.667Z,9.57
2018-05-07T14:02:17.195Z,6.63
2018-05-07T14:04:44.703Z,9.87
2018-05-07T14:07:12.226Z,7.23
2018-05-07T14:09:40.538Z,6.90
2018-05-07T14:12:08.063Z,9.73
2018-05-07T14:14:36.378Z,4.90
2018-05-07T14:17:03.932Z,6.67
2018-05-07T14:19:31.459Z,8.00
2018-05-07T14:21:59.017Z,5.73
2018-05-07T14:24:26.553Z,6.30
2018-05-07T14:26:54.088Z,4.63
2018-05-07T14:29:21.626Z,4.73
2018-05-07T14:31:49.154Z,8.10
2018-05-07T14:34:16.675Z,7.90
2018-05-07T14:36:44.268Z,5.03
2018-05-07T14:39:12.568Z,5.73
2018-05-07T14:41:40.140Z,9.20
2018-05-07T14:44:07.683Z,5.73
2018-05-07T14:46:35.219Z,6.63
2018-05-07T14:49:02.796Z,5.07
2018-05-07T14:51:30.317Z,7.23
2018-05-07T14:53:57.830Z,6.97
2018-05-07T14:56:25.365Z,5.27
2018-05-07T14:58:52.919Z,7.17
2018-05-07T15:01:21.228Z,8.67
2018-05-07T15:03:48.753Z,4.33
2018-05-07T15:06:17.061Z,7.77
2018-05-07T15:08:44.564Z,6.23
2018-05-07T15:11:12.099Z,6.77
2018-05-07T15:13:39.649Z,5.57
2018-05-07T15:16:07.178Z,4.43
2018-05-07T15:18:34.717Z,4.30
2018-05-07T15:21:16.576Z,5.77
2018-05-07T15:23:44.176Z,5.93
2018-05-07T15:26:12.471Z,4.90
2018-05-07T15:28:40.008Z,5.30
2018-05-07T15:31:08.311Z,10.37
2018-05-07T15:33:35.877Z,5.17
2018-05-07T15:36:03.399Z,6.40
2018-05-07T15:38:30.924Z,9.60
2018-05-07T15:40:58.495Z,7.03
2018-05-07T15:43:26.009Z,5.97
2018-05-07T15:45:53.539Z,6.87
2018-05-07T15:48:21.070Z,4.37
2018-05-07T15:50:48.599Z,6.40
2018-05-07T15:53:16.127Z,6.47
2018-05-07T15:55:43.702Z,5.63
2018-05-07T15:58:11.217Z,5.33
2018-05-07T16:00:38.764Z,4.47
2018-05-07T16:03:07.133Z,7.03
2018-05-07T16:05:34.635Z,6.97
2018-05-07T16:08:02.150Z,5.47
2018-05-07T16:10:29.684Z,6.90
2018-05-07T16:12:57.235Z,6.33
2018-05-07T16:15:24.811Z,7.43
2018-05-07T16:17:52.332Z,8.53
2018-05-07T16:20:19.868Z,6.57
2018-05-07T16:22:47.423Z,5.13
2018-05-07T16:25:15.719Z,6.60
2018-05-07T16:27:43.264Z,6.87
2018-05-07T16:30:10.827Z,6.97
2018-05-07T16:32:38.363Z,6.10
2018-05-07T16:35:05.903Z,6.00
2018-05-07T16:37:33.467Z,4.73
2018-05-07T16:40:01.048Z,5.90
2018-05-07T16:42:29.360Z,5.40
2018-05-07T16:44:56.929Z,5.33
2018-05-07T16:47:24.456Z,5.93
2018-05-07T16:49:52.734Z,5.90
2018-05-07T16:52:20.279Z,6.67
2018-05-07T16:54:48.599Z,7.93
2018-05-07T16:57:16.143Z,7.77
2018-05-07T16:59:43.698Z,8.67
2018-05-07T17:02:11.238Z,10.03
2018-05-07T17:04:38.782Z,8.43
2018-05-07T17:07:06.377Z,7.63
2018-05-07T17:09:33.900Z,6.17
2018-05-07T17:12:01.427Z,7.03
2018-05-07T17:14:28.972Z,5.00
2018-05-07T17:16:56.516Z,5.50
2018-05-07T17:19:24.051Z,5.10
2018-05-07T17:21:52.435Z,7.57
2018-05-07T17:24:20.084Z,7.83
2018-05-07T17:26:47.577Z,8.13
2018-05-07T17:29:15.113Z,8.17
2018-05-07T17:31:56.974Z,7.33
2018-05-07T17:34:24.547Z,5.63
2018-05-07T17:36:52.067Z,7.27
2018-05-07T17:39:19.609Z,9.07
2018-05-07T17:41:47.137Z,8.63
2018-05-07T17:44:26.400Z,4.20
2018-05-07T17:47:05.559Z,5.83
2018-05-07T17:49:33.129Z,6.20
2018-05-07T17:52:00.672Z,5.83
2018-05-07T17:54:28.247Z,7.20
2018-05-07T17:56:55.832Z,8.33
2018-05-07T17:59:24.131Z,6.73
2018-05-07T18:01:51.656Z,8.37
2018-05-07T18:04:19.246Z,5.83
2018-05-07T18:06:46.787Z,5.97
2018-05-07T18:09:14.305Z,5.93
2018-05-07T18:11:41.871Z,4.93
2018-05-07T18:14:09.399Z,5.27
2018-05-07T18:16:36.973Z,6.63
2018-05-07T18:19:04.515Z,7.03
2018-05-07T18:21:32.039Z,3.70
2018-05-07T18:24:00.362Z,7.47
2018-05-07T18:26:27.953Z,6.30
2018-05-07T18:28:55.420Z,3.23
2018-05-07T18:31:23.023Z,6.40
2018-05-07T18:33:50.546Z,5.13
2018-05-07T18:36:18.115Z,3.50
2018-05-07T18:38:45.684Z,3.77
2018-05-07T18:41:13.244Z,3.53
2018-05-07T18:43:40.786Z,5.70
2018-05-07T18:46:08.447Z,2.77
2018-05-07T18:48:36.790Z,2.63
2018-05-07T18:51:04.331Z,3.13
2018-05-07T18:53:31.852Z,3.37
2018-05-07T18:55:59.407Z,6.07
2018-05-07T18:58:27.691Z,2.87
2018-05-07T19:03:57.688Z,4.00
2018-05-07T19:06:25.265Z,2.27
2018-05-07T19:08:53.576Z,2.40
2018-05-07T19:11:21.307Z,3.10
2018-05-07T19:13:48.882Z,4.70
2018-05-07T19:16:16.462Z,2.93
2018-05-07T19:18:44.005Z,2.80
2018-05-07T19:21:31.038Z,2.90
2018-05-07T19:23:58.562Z,4.20
2018-05-07T19:26:26.862Z,2.23
2018-05-07T19:28:54.430Z,5.63
2018-05-07T19:31:36.227Z,4.93
2018-05-07T19:34:03.771Z,2.57
2018-05-07T19:36:31.291Z,2.70
2018-05-07T19:38:58.811Z,2.67
2018-05-07T19:41:31.373Z,2.27
2018-05-07T19:43:58.899Z,5.80
2018-05-07T19:46:27.191Z,3.93
2018-05-07T19:48:54.737Z,3.23
2018-05-07T19:51:23.027Z,4.37
2018-05-07T19:53:50.694Z,4.73
2018-05-07T19:56:18.223Z,1.90
2018-05-07T19:58:45.758Z,4.63
2018-05-07T20:01:13.319Z,4.77
2018-05-07T20:03:40.835Z,3.80
2018-05-07T20:06:08.350Z,2.63
2018-05-07T20:08:35.894Z,3.00
2018-05-07T20:11:03.439Z,4.57
2018-05-07T20:13:30.969Z,3.20
2018-05-07T20:15:58.536Z,4.60
2018-05-07T20:18:26.831Z,3.93
2018-05-07T20:20:54.400Z,3.97
2018-05-07T20:23:21.984Z,3.07
2018-05-07T20:25:50.278Z,5.27
2018-05-07T20:28:18.583Z,3.17
2018-05-07T20:30:46.314Z,4.50
2018-05-07T20:33:14.673Z,3.47
2018-05-07T20:35:42.203Z,3.20
2018-05-07T20:38:09.727Z,2.13
2018-05-07T20:41:01.071Z,1.50
2018-05-07T20:43:28.634Z,3.10
2018-05-07T20:45:56.146Z,2.87
2018-05-07T20:48:23.683Z,3.47
2018-05-07T20:50:51.230Z,1.47
2018-05-07T20:53:18.756Z,4.27
2018-05-07T20:55:46.286Z,2.20
2018-05-07T20:58:13.824Z,1.90
2018-05-07T21:00:55.689Z,4.37
2018-05-07T21:03:23.240Z,2.33
2018-05-07T21:05:50.818Z,2.37
2018-05-07T21:08:18.336Z,1.97
2018-05-07T21:10:55.699Z,2.57
2018-05-07T21:13:23.235Z,1.80
2018-05-07T21:15:50.754Z,3.13
2018-05-07T21:18:18.319Z,1.87
2018-05-07T21:20:45.838Z,1.67
2018-05-07T21:23:13.383Z,2.50
2018-05-07T21:25:40.940Z,1.87
2018-05-07T21:28:08.466Z,4.10
2018-05-07T21:30:36.204Z,2.53
2018-05-07T21:33:03.779Z,1.17
2018-05-07T21:35:31.288Z,2.67
2018-05-07T21:37:58.843Z,1.57
2018-05-07T21:40:26.388Z,1.83
2018-05-07T21:42:54.689Z,3.50
2018-05-07T21:45:22.268Z,2.33
2018-05-07T21:47:50.557Z,1.70
2018-05-07T21:50:18.067Z,3.20
2018-05-07T21:52:45.623Z,3.30
2018-05-07T21:55:13.910Z,1.90
2018-05-07T21:57:41.432Z,2.77
2018-05-07T22:00:09.003Z,2.67
2018-05-07T22:02:36.530Z,1.63
2018-05-07T22:05:04.091Z,2.33
2018-05-07T22:07:31.632Z,1.33
2018-05-07T22:09:59.188Z,1.60
2018-05-07T22:12:26.809Z,1.40
2018-05-07T22:14:54.260Z,1.93
2018-05-07T22:17:22.593Z,2.60
2018-05-07T22:19:50.120Z,2.43
2018-05-07T22:22:17.751Z,2.13
2018-05-07T22:24:45.286Z,2.80
2018-05-07T22:27:12.830Z,2.20
2018-05-07T22:29:40.364Z,2.63
2018-05-07T22:32:13.133Z,2.77
2018-05-07T22:34:40.658Z,2.10
2018-05-07T22:37:08.174Z,2.40
2018-05-07T22:39:35.686Z,1.30
2018-05-07T22:42:27.885Z,1.77
2018-05-07T22:44:55.407Z,1.20
2018-05-07T22:47:22.939Z,3.60
2018-05-07T22:49:50.696Z,2.27
2018-05-07T22:52:18.093Z,2.23
2018-05-07T22:54:45.615Z,3.27
2018-05-07T22:57:13.203Z,3.13
2018-05-07T22:59:40.725Z,2.33
2018-05-07T23:02:08.260Z,2.23
2018-05-07T23:04:35.827Z,5.87
2018-05-07T23:07:03.352Z,2.60
2018-05-07T23:09:30.878Z,1.53
2018-05-07T23:12:13.537Z,3.93
2018-05-07T23:14:41.068Z,2.37
2018-05-07T23:17:08.615Z,2.93
2018-05-07T23:19:36.148Z,2.13
2018-05-07T23:22:03.685Z,3.33
2018-05-07T23:24:31.247Z,1.97
2018-05-07T23:26:58.763Z,2.90
2018-05-07T23:29:26.299Z,3.13
2018-05-07T23:31:53.878Z,1.97
2018-05-07T23:34:21.430Z,4.03
2018-05-07T23:36:48.954Z,2.40
2018-05-07T23:39:16.556Z,2.50
2018-05-07T23:41:44.283Z,2.50
2018-05-07T23:44:11.816Z,3.80
2018-05-07T23:46:39.349Z,4.17
2018-05-07T23:49:06.877Z,4.80
2018-05-07T23:51:35.179Z,4.40
2018-05-07T23:54:02.745Z,2.67
2018-05-07T23:56:30.262Z,3.30
2018-05-07T23:58:57.795Z,1.60
